Terminal Aerodrome Forecast
Issued by NWS

Home | Current Version | Previous Version | Graphics & Text | Print | Product List | Glossary On
Versions: 1 2 3 4 5 6 7 8 9 10 11 12 13 14 15 16 17 18 19 20 21 22 23 24 25 26 27 28 29 30 31 32
000
FTUS43 KBIS 221315 AAB
TAFMOT
TAF AMD
KMOT 221315Z 2213/2312 23010KT P6SM SCT200
     FM221400 36010KT P6SM BKN006
      TEMPO 2214/2216 2SM BR
     FM221800 02011KT P6SM VCSH BKN015
     FM222000 03011KT P6SM BKN030
     FM230600 07010KT P6SM BKN015 OVC100=

USA.gov is the U.S. government's official web portal to all federal, state and local government web resources and services.